메인 페이지
METAR-TAF:

METAR-TAF

공항 :

다람살라, 인도

위도: 32-09-54N, 경도: 76-15-48E, 고도: 770m

METAR: 누락

시각: 16:46 (11:16 UTC)

예보

예보는 6 시간 16분 전, 05:00시(UTC)에 발표되었습니다.
예보 대상 시간: 30일 06시부터 30일 15시까지 (UTC)
여러 방향의 바람 2kt
시정: 4000m
고도 3500ft 상공 구름 조금
고도 9000ft 상공 구름 보통
연무
전환 중
30일 13시부터 30일 15시까지 (UTC)
남남동5kt
시정: 3000m
연무

TAF: VIGG 300500Z 3006/3015 VRB02KT 4000 HZ FEW035 SCT090 BECMG 3013/3015 16005KT 3000 HZ

4,000개 이상의 공항 관측 자료 및 예보 (METAR 및 TAF 보고).

지도상에서 검색 가능한 기상관측소가 노란 점과 빨간 점으로 표시되어 있습니다.

기상관측소 명을 보려면 표시 위로 마우스를 이동하세요.

날씨 관측과 예보를 보려면 클릭하세요.

지도 변경 : 확대하려면 엑스 표시가 있는 녹색 버튼, 축소하려면 빼기 표시가 있는 녹색 버튼, 다음 페이지의 지도를 보려면 녹색 화살표를 클릭하세요.


METAR-TAF: